createdAt,value
2018-06-16T00:00:34.062Z,18.65
2018-06-16T00:02:27.060Z,18.70
2018-06-16T00:03:27.147Z,18.62
2018-06-16T00:05:20.125Z,18.59
2018-06-16T00:06:20.184Z,18.75
2018-06-16T00:08:13.190Z,18.68
2018-06-16T00:09:13.241Z,18.73
2018-06-16T00:11:06.234Z,18.74
2018-06-16T00:12:06.299Z,18.74
2018-06-16T00:13:59.300Z,18.60
2018-06-16T00:14:59.355Z,18.63
2018-06-16T00:16:52.365Z,18.71
2018-06-16T00:17:52.421Z,18.65
2018-06-16T00:19:45.421Z,18.81
2018-06-16T00:20:45.481Z,18.66
2018-06-16T00:22:38.480Z,18.60
2018-06-16T00:23:38.537Z,18.65
2018-06-16T00:25:31.538Z,18.63
2018-06-16T00:26:31.595Z,18.63
2018-06-16T00:28:24.609Z,18.66
2018-06-16T00:29:24.653Z,18.65
2018-06-16T00:31:17.645Z,18.62
2018-06-16T00:32:17.709Z,18.68
2018-06-16T00:34:10.708Z,18.60
2018-06-16T00:35:10.768Z,18.55
2018-06-16T00:37:03.761Z,18.66
2018-06-16T00:38:03.823Z,18.56
2018-06-16T00:39:56.824Z,18.53
2018-06-16T00:40:56.881Z,18.50
2018-06-16T00:42:49.881Z,18.58
2018-06-16T00:43:49.943Z,18.53
2018-06-16T00:45:42.942Z,18.56
2018-06-16T00:46:43.001Z,18.52
2018-06-16T00:48:35.995Z,18.43
2018-06-16T00:49:36.058Z,18.37
2018-06-16T00:51:29.068Z,18.35
2018-06-16T00:52:29.114Z,18.28
2018-06-16T00:54:22.114Z,18.38
2018-06-16T00:55:22.172Z,18.38
2018-06-16T00:57:15.163Z,18.40
2018-06-16T00:58:15.232Z,18.40
2018-06-16T01:00:08.227Z,18.45
2018-06-16T01:01:08.286Z,18.52
2018-06-16T01:03:01.281Z,18.43
2018-06-16T01:04:01.343Z,18.38
2018-06-16T01:05:54.340Z,18.40
2018-06-16T01:06:54.401Z,18.41
2018-06-16T01:08:47.393Z,18.43
2018-06-16T01:09:47.455Z,18.41
2018-06-16T01:11:40.456Z,18.41
2018-06-16T01:12:40.516Z,18.38
2018-06-16T01:14:33.512Z,18.33
2018-06-16T01:15:33.577Z,18.22
2018-06-16T01:17:26.563Z,18.28
2018-06-16T01:18:26.627Z,18.18
2018-06-16T01:20:19.631Z,18.13
2018-06-16T01:21:19.683Z,18.04
2018-06-16T01:23:12.677Z,18.15
2018-06-16T01:24:12.741Z,18.10
2018-06-16T01:26:05.746Z,18.22
2018-06-16T01:27:05.804Z,18.16
2018-06-16T01:28:58.796Z,18.25
2018-06-16T01:29:58.860Z,18.31
2018-06-16T01:31:51.861Z,18.28
2018-06-16T01:32:51.917Z,18.41
2018-06-16T01:34:44.909Z,18.33
2018-06-16T01:35:44.974Z,18.28
2018-06-16T01:37:37.975Z,18.22
2018-06-16T01:38:38.031Z,18.13
2018-06-16T01:40:31.030Z,18.13
2018-06-16T01:41:31.090Z,18.11
2018-06-16T01:43:24.082Z,18.08
2018-06-16T01:44:24.145Z,18.13
2018-06-16T01:46:17.149Z,18.08
2018-06-16T01:47:17.205Z,18.08
2018-06-16T01:49:10.196Z,18.08
2018-06-16T01:50:10.261Z,18.05
2018-06-16T01:52:03.261Z,17.94
2018-06-16T01:53:03.320Z,18.04
2018-06-16T01:54:56.319Z,17.95
2018-06-16T01:55:56.396Z,17.92
2018-06-16T01:57:49.374Z,17.94
2018-06-16T01:58:49.433Z,17.87
2018-06-16T02:00:42.424Z,17.86
2018-06-16T02:01:42.511Z,17.95
2018-06-16T02:03:35.484Z,17.89
2018-06-16T02:04:35.548Z,17.87
2018-06-16T02:06:28.542Z,17.80
2018-06-16T02:07:28.602Z,17.74
2018-06-16T02:09:21.593Z,17.80
2018-06-16T02:10:21.660Z,17.59
2018-06-16T02:12:14.657Z,17.57
2018-06-16T02:13:14.710Z,17.39
2018-06-16T02:15:07.704Z,17.38
2018-06-16T02:16:07.769Z,17.42
2018-06-16T02:18:00.767Z,17.42
2018-06-16T02:19:00.824Z,17.38
2018-06-16T02:20:53.817Z,17.29
2018-06-16T02:21:53.883Z,17.22
2018-06-16T02:23:46.881Z,17.19
2018-06-16T02:24:46.938Z,17.15
2018-06-16T02:26:39.928Z,17.16
2018-06-16T02:27:39.992Z,17.19
2018-06-16T02:29:32.990Z,17.22
2018-06-16T02:30:33.048Z,17.29
2018-06-16T02:32:26.046Z,17.26
2018-06-16T02:33:26.105Z,17.24
2018-06-16T02:35:19.102Z,17.26
2018-06-16T02:36:19.162Z,17.23
2018-06-16T02:38:12.159Z,17.24
2018-06-16T02:39:12.216Z,17.19
2018-06-16T02:41:05.209Z,17.09
2018-06-16T02:42:05.272Z,17.11
2018-06-16T02:43:58.271Z,17.11
2018-06-16T02:44:58.326Z,17.09
2018-06-16T02:46:51.317Z,17.11
2018-06-16T02:47:51.383Z,17.08
2018-06-16T02:49:44.382Z,16.94
2018-06-16T02:50:44.448Z,17.05
2018-06-16T02:52:37.434Z,16.99
2018-06-16T02:53:37.496Z,17.05
2018-06-16T02:55:30.513Z,17.16
2018-06-16T02:56:30.555Z,17.14
2018-06-16T02:58:24.056Z,17.16
2018-06-16T02:59:24.116Z,17.23
2018-06-16T03:01:17.106Z,17.22
2018-06-16T03:02:17.170Z,17.22
2018-06-16T03:04:10.169Z,17.23
2018-06-16T03:05:10.228Z,17.23
2018-06-16T03:07:03.218Z,17.23
2018-06-16T03:08:03.282Z,17.23
2018-06-16T03:09:56.279Z,17.16
2018-06-16T03:10:56.339Z,17.06
2018-06-16T03:12:49.332Z,17.06
2018-06-16T03:13:49.407Z,17.08
2018-06-16T03:15:42.396Z,17.02
2018-06-16T03:16:42.452Z,17.05
2018-06-16T03:18:35.480Z,16.90
2018-06-16T03:19:35.504Z,16.99
2018-06-16T03:21:28.506Z,16.69
2018-06-16T03:22:28.560Z,16.83
2018-06-16T03:24:21.559Z,16.60
2018-06-16T03:25:21.615Z,16.58
2018-06-16T03:27:14.606Z,16.58
2018-06-16T03:28:14.671Z,16.49
2018-06-16T03:30:07.668Z,16.57
2018-06-16T03:31:07.725Z,16.53
2018-06-16T03:33:00.726Z,16.50
2018-06-16T03:34:00.786Z,16.50
2018-06-16T03:35:53.785Z,16.50
2018-06-16T03:36:53.841Z,16.60
2018-06-16T03:38:46.838Z,16.65
2018-06-16T03:39:46.906Z,16.65
2018-06-16T03:41:39.901Z,16.71
2018-06-16T03:42:39.955Z,16.78
2018-06-16T03:44:32.957Z,16.78
2018-06-16T03:45:33.019Z,16.74
2018-06-16T03:47:26.007Z,16.75
2018-06-16T03:48:26.072Z,16.76
2018-06-16T03:50:19.069Z,16.72
2018-06-16T03:51:19.129Z,16.83
2018-06-16T03:53:12.129Z,16.84
2018-06-16T03:54:12.192Z,16.86
2018-06-16T03:56:05.187Z,16.97
2018-06-16T03:57:05.246Z,17.01
2018-06-16T03:58:58.741Z,17.04
2018-06-16T03:59:58.804Z,17.04
2018-06-16T04:01:51.860Z,17.08
2018-06-16T04:02:51.862Z,17.19
2018-06-16T04:04:44.857Z,17.14
2018-06-16T04:05:44.917Z,17.24
2018-06-16T04:07:37.916Z,17.20
2018-06-16T04:08:37.973Z,17.24
2018-06-16T04:10:30.968Z,17.29
2018-06-16T04:11:31.026Z,17.29
2018-06-16T04:13:24.017Z,17.29
2018-06-16T04:14:24.079Z,17.30
2018-06-16T04:16:17.076Z,17.34
2018-06-16T04:17:17.136Z,17.30
2018-06-16T04:19:10.126Z,17.33
2018-06-16T04:20:10.190Z,17.38
2018-06-16T04:22:03.188Z,17.30
2018-06-16T04:23:03.247Z,17.36
2018-06-16T04:24:56.238Z,17.31
2018-06-16T04:25:56.301Z,17.42
2018-06-16T04:27:49.302Z,17.36
2018-06-16T04:28:49.356Z,17.41
2018-06-16T04:30:42.355Z,17.52
2018-06-16T04:31:42.412Z,17.54
2018-06-16T04:33:35.399Z,17.63
2018-06-16T04:34:35.466Z,17.52
2018-06-16T04:36:28.466Z,17.52
2018-06-16T04:37:28.526Z,17.51
2018-06-16T04:39:21.516Z,17.54
2018-06-16T04:40:21.580Z,17.64
2018-06-16T04:42:14.580Z,17.71
2018-06-16T04:43:14.639Z,17.70
2018-06-16T04:45:07.630Z,17.83
2018-06-16T04:46:07.695Z,17.83
2018-06-16T04:48:00.700Z,17.82
2018-06-16T04:49:00.773Z,17.89
2018-06-16T04:50:53.744Z,17.90
2018-06-16T04:51:53.808Z,17.94
2018-06-16T04:53:46.808Z,18.05
2018-06-16T04:54:46.867Z,18.07
2018-06-16T04:56:40.374Z,18.18
2018-06-16T04:57:40.432Z,18.35
2018-06-16T04:59:33.426Z,18.33
2018-06-16T05:00:33.490Z,18.31
2018-06-16T05:02:26.487Z,18.40
2018-06-16T05:03:26.546Z,18.52
2018-06-16T05:05:19.542Z,18.65
2018-06-16T05:06:19.608Z,18.66
2018-06-16T05:08:12.610Z,18.78
2018-06-16T05:09:12.669Z,18.81
2018-06-16T05:11:05.661Z,18.80
2018-06-16T05:12:05.725Z,18.77
2018-06-16T05:13:58.726Z,18.89
2018-06-16T05:14:58.784Z,18.84
2018-06-16T05:16:51.787Z,18.90
2018-06-16T05:17:51.842Z,18.92
2018-06-16T05:19:44.842Z,19.09
2018-06-16T05:20:44.899Z,19.16
2018-06-16T05:22:37.901Z,19.24
2018-06-16T05:23:37.957Z,19.37
2018-06-16T05:25:30.948Z,19.34
2018-06-16T05:26:31.035Z,19.44
2018-06-16T05:28:24.015Z,19.45
2018-06-16T05:29:24.083Z,19.37
2018-06-16T05:31:17.096Z,19.40
2018-06-16T05:32:17.133Z,19.45
2018-06-16T05:34:10.132Z,19.54
2018-06-16T05:35:10.214Z,19.64
2018-06-16T05:37:03.211Z,19.49
2018-06-16T05:38:03.270Z,19.54
2018-06-16T05:39:56.280Z,19.62
2018-06-16T05:40:56.330Z,19.71
2018-06-16T05:42:49.340Z,19.76
2018-06-16T05:43:49.412Z,19.71
2018-06-16T05:45:42.360Z,19.86
2018-06-16T05:46:42.472Z,19.86
2018-06-16T05:48:35.432Z,19.99
2018-06-16T05:49:35.484Z,19.92
2018-06-16T05:51:28.506Z,20.04
2018-06-16T05:52:28.537Z,20.04
2018-06-16T05:54:21.554Z,20.09
2018-06-16T05:55:21.603Z,19.99
2018-06-16T05:57:14.593Z,20.10
2018-06-16T05:58:14.659Z,20.09
2018-06-16T06:00:07.659Z,20.14
2018-06-16T06:01:07.718Z,20.21
2018-06-16T06:03:00.713Z,20.26
2018-06-16T06:04:00.778Z,20.28
2018-06-16T06:05:53.784Z,20.25
2018-06-16T06:06:53.846Z,20.48
2018-06-16T06:08:46.839Z,20.48
2018-06-16T06:09:46.903Z,20.50
2018-06-16T06:11:39.903Z,20.48
2018-06-16T06:12:39.963Z,20.43
2018-06-16T06:14:32.964Z,20.37
2018-06-16T06:15:33.023Z,20.50
2018-06-16T06:17:26.015Z,20.87
2018-06-16T06:18:26.081Z,21.12
2018-06-16T06:20:19.083Z,21.88
2018-06-16T06:21:19.139Z,22.07
2018-06-16T06:23:12.139Z,23.25
2018-06-16T06:24:12.204Z,23.40
2018-06-16T06:26:05.204Z,23.37
2018-06-16T06:27:05.265Z,23.43
2018-06-16T06:28:58.260Z,23.92
2018-06-16T06:29:58.327Z,24.13
2018-06-16T06:31:51.328Z,24.63
2018-06-16T06:32:51.387Z,24.95
2018-06-16T06:34:44.402Z,26.22
2018-06-16T06:35:44.452Z,26.73
2018-06-16T06:37:37.452Z,26.68
2018-06-16T06:38:37.522Z,26.21
2018-06-16T06:40:30.529Z,25.58
2018-06-16T06:41:30.588Z,25.81
2018-06-16T06:43:23.638Z,26.25
2018-06-16T06:44:23.657Z,26.10
2018-06-16T06:46:17.171Z,25.81
2018-06-16T06:47:17.235Z,25.81
2018-06-16T06:49:10.240Z,25.70
2018-06-16T06:50:10.306Z,25.99
2018-06-16T06:52:03.320Z,26.22
2018-06-16T06:53:03.384Z,26.56
2018-06-16T06:54:56.389Z,27.17
2018-06-16T06:55:56.456Z,27.17
2018-06-16T06:57:49.474Z,27.44
2018-06-16T06:58:49.530Z,26.97
2018-06-16T07:00:42.538Z,26.90
2018-06-16T07:01:42.606Z,26.59
2018-06-16T07:03:35.625Z,26.55
2018-06-16T07:04:35.682Z,26.77
2018-06-16T07:06:28.696Z,27.33
2018-06-16T07:07:28.759Z,27.67
2018-06-16T07:09:21.764Z,27.10
2018-06-16T07:10:21.841Z,27.20
2018-06-16T07:12:14.845Z,27.52
2018-06-16T07:13:14.911Z,28.19
2018-06-16T07:15:07.918Z,28.22
2018-06-16T07:16:07.984Z,28.11
2018-06-16T07:18:01.005Z,27.90
2018-06-16T07:19:01.064Z,27.90
2018-06-16T07:20:54.070Z,27.89
2018-06-16T07:21:54.144Z,27.85
2018-06-16T07:23:47.154Z,27.30
2018-06-16T07:24:47.218Z,27.70
2018-06-16T07:26:40.241Z,27.67
2018-06-16T07:27:40.298Z,27.40
2018-06-16T07:29:33.306Z,27.52
2018-06-16T07:35:12.951Z,28.30
2018-06-16T07:36:13.064Z,28.17
2018-06-16T07:38:06.031Z,27.96
2018-06-16T07:39:06.094Z,27.70
2018-06-16T07:40:59.103Z,27.42
2018-06-16T07:41:59.176Z,27.42
2018-06-16T07:43:52.190Z,27.93
2018-06-16T07:44:52.254Z,28.26
2018-06-16T07:46:45.264Z,27.93
2018-06-16T07:47:45.335Z,27.71
2018-06-16T07:49:38.349Z,27.60
2018-06-16T07:50:38.415Z,27.90
2018-06-16T07:52:31.422Z,28.15
2018-06-16T07:53:31.496Z,28.10
2018-06-16T07:55:24.505Z,27.92
2018-06-16T07:56:24.573Z,27.92
2018-06-16T07:58:17.589Z,27.90
2018-06-16T07:59:17.652Z,27.60
2018-06-16T08:01:10.658Z,27.87
2018-06-16T08:02:10.727Z,27.37
2018-06-16T08:04:03.740Z,27.89
2018-06-16T08:05:03.805Z,28.22
2018-06-16T08:06:56.814Z,28.30
2018-06-16T08:07:56.884Z,28.17
2018-06-16T08:09:49.941Z,27.95
2018-06-16T08:10:50.008Z,28.14
2018-06-16T08:12:43.019Z,27.64
2018-06-16T08:13:43.087Z,27.49
2018-06-16T08:15:36.102Z,27.35
2018-06-16T08:16:36.171Z,27.47
2018-06-16T08:18:29.190Z,27.05
2018-06-16T08:19:29.256Z,26.44
2018-06-16T08:21:22.262Z,25.72
2018-06-16T08:22:22.332Z,25.63
2018-06-16T08:24:15.345Z,25.72
2018-06-16T08:25:15.411Z,25.55
2018-06-16T08:27:08.421Z,26.05
2018-06-16T08:28:08.486Z,26.22
2018-06-16T08:30:01.501Z,26.18
2018-06-16T08:31:01.564Z,26.26
2018-06-16T08:32:54.573Z,26.45
2018-06-16T08:33:54.664Z,26.80
2018-06-16T08:35:47.652Z,26.89
2018-06-16T08:36:47.718Z,27.00
2018-06-16T08:38:40.722Z,28.01
2018-06-16T08:39:40.791Z,28.27
2018-06-16T08:41:33.806Z,28.60
2018-06-16T08:42:33.884Z,28.26
2018-06-16T08:44:26.958Z,28.27
2018-06-16T08:45:26.949Z,28.72
2018-06-16T08:47:20.002Z,28.86
2018-06-16T08:48:20.028Z,29.04
2018-06-16T08:50:13.055Z,29.24
2018-06-16T08:51:13.114Z,29.20
2018-06-16T08:53:06.118Z,28.84
2018-06-16T08:54:06.190Z,28.72
2018-06-16T08:55:59.212Z,28.27
2018-06-16T08:56:59.273Z,27.95
2018-06-16T08:58:52.796Z,28.11
2018-06-16T08:59:52.865Z,28.08
2018-06-16T09:01:45.888Z,28.26
2018-06-16T09:02:45.950Z,28.12
2018-06-16T09:04:38.970Z,28.14
2018-06-16T09:05:39.032Z,28.26
2018-06-16T09:07:32.042Z,28.47
2018-06-16T09:08:32.114Z,28.39
2018-06-16T09:10:25.132Z,27.75
2018-06-16T09:11:25.215Z,27.26
2018-06-16T09:13:18.207Z,27.07
2018-06-16T09:14:18.279Z,27.03
2018-06-16T09:16:11.295Z,27.37
2018-06-16T09:17:11.362Z,27.42
2018-06-16T09:19:04.373Z,27.67
2018-06-16T09:20:04.442Z,27.26
2018-06-16T09:21:57.454Z,27.75
2018-06-16T09:22:57.520Z,28.01
2018-06-16T09:24:50.529Z,28.15
2018-06-16T09:25:50.605Z,28.05
2018-06-16T09:27:43.626Z,28.26
2018-06-16T09:28:43.688Z,27.83
2018-06-16T09:30:36.704Z,27.29
2018-06-16T09:31:36.769Z,26.88
2018-06-16T09:33:29.778Z,26.78
2018-06-16T09:34:29.849Z,26.73
2018-06-16T09:36:22.875Z,26.81
2018-06-16T09:37:22.938Z,26.93
2018-06-16T09:39:15.980Z,26.74
2018-06-16T09:40:16.019Z,26.52
2018-06-16T09:42:09.049Z,26.83
2018-06-16T09:43:09.143Z,26.84
2018-06-16T09:45:02.102Z,27.30
2018-06-16T09:46:02.172Z,27.22
2018-06-16T09:47:55.191Z,27.55
2018-06-16T09:48:55.259Z,27.68
2018-06-16T09:50:48.270Z,27.02
2018-06-16T09:51:48.335Z,26.88
2018-06-16T09:53:41.346Z,27.11
2018-06-16T09:54:41.411Z,27.32
2018-06-16T09:56:34.426Z,27.77
2018-06-16T09:57:34.486Z,27.92
2018-06-16T09:59:27.497Z,28.25
2018-06-16T10:00:27.563Z,28.15
2018-06-16T10:02:20.580Z,28.11
2018-06-16T10:03:20.691Z,28.04
2018-06-16T10:05:13.652Z,27.82
2018-06-16T10:06:13.722Z,26.93
2018-06-16T10:08:06.734Z,26.75
2018-06-16T10:09:06.798Z,26.40
2018-06-16T10:10:59.800Z,26.63
2018-06-16T10:11:59.874Z,26.58
2018-06-16T10:13:52.890Z,26.78
2018-06-16T10:14:52.956Z,26.77
2018-06-16T10:16:45.975Z,27.05
2018-06-16T10:17:46.037Z,27.15
2018-06-16T10:19:39.044Z,26.92
2018-06-16T10:20:39.115Z,26.99
2018-06-16T10:22:32.128Z,27.29
2018-06-16T10:23:32.192Z,27.20
2018-06-16T10:25:25.196Z,27.25
2018-06-16T10:26:25.267Z,26.89
2018-06-16T10:28:18.335Z,26.63
2018-06-16T10:29:18.401Z,26.59
2018-06-16T10:31:11.407Z,26.81
2018-06-16T10:32:11.476Z,26.83
2018-06-16T10:34:04.493Z,26.89
2018-06-16T10:35:04.558Z,26.97
2018-06-16T10:36:57.567Z,27.03
2018-06-16T10:37:57.634Z,26.96
2018-06-16T10:39:50.646Z,27.21
2018-06-16T10:40:50.709Z,27.32
2018-06-16T10:42:43.731Z,27.44
2018-06-16T10:43:43.791Z,27.36
2018-06-16T10:45:36.792Z,27.00
2018-06-16T10:46:36.866Z,26.88
2018-06-16T10:48:29.883Z,26.93
2018-06-16T10:49:29.949Z,27.25
2018-06-16T10:51:22.961Z,27.48
2018-06-16T10:52:23.030Z,27.64
2018-06-16T10:54:16.040Z,27.49
2018-06-16T10:55:16.108Z,27.45
2018-06-16T10:57:09.112Z,27.12
2018-06-16T10:58:09.179Z,27.27
2018-06-16T11:00:02.197Z,27.07
2018-06-16T11:01:02.262Z,27.22
2018-06-16T11:02:55.279Z,27.40
2018-06-16T11:03:55.344Z,27.40
2018-06-16T11:05:48.358Z,27.18
2018-06-16T11:06:48.428Z,26.93
2018-06-16T11:08:41.439Z,26.88
2018-06-16T11:09:41.502Z,26.92
2018-06-16T11:11:34.519Z,26.44
2018-06-16T11:12:34.579Z,26.19
2018-06-16T11:14:27.590Z,26.31
2018-06-16T11:15:27.656Z,26.63
2018-06-16T11:17:20.662Z,26.60
2018-06-16T11:18:20.728Z,26.78
2018-06-16T11:20:13.743Z,26.90
2018-06-16T11:21:13.807Z,26.95
2018-06-16T11:23:06.811Z,26.89
2018-06-16T11:24:06.881Z,26.95
2018-06-16T11:25:59.891Z,26.93
2018-06-16T11:26:59.958Z,26.81
2018-06-16T11:28:52.971Z,26.90
2018-06-16T11:29:53.032Z,26.92
2018-06-16T11:31:46.031Z,27.08
2018-06-16T11:32:46.099Z,27.17
2018-06-16T11:34:39.109Z,26.89
2018-06-16T11:35:39.174Z,26.95
2018-06-16T11:37:32.176Z,26.92
2018-06-16T11:38:32.247Z,27.03
2018-06-16T11:40:25.265Z,26.93
2018-06-16T11:41:25.323Z,26.90
2018-06-16T11:43:18.328Z,26.88
2018-06-16T11:44:18.394Z,26.97
2018-06-16T11:46:11.409Z,26.85
2018-06-16T11:47:11.473Z,26.96
2018-06-16T11:49:04.477Z,27.29
2018-06-16T11:50:04.542Z,27.22
2018-06-16T11:51:57.555Z,27.00
2018-06-16T11:52:57.618Z,27.03
2018-06-16T11:54:50.632Z,27.25
2018-06-16T11:55:50.700Z,27.47
2018-06-16T11:57:43.763Z,27.51
2018-06-16T11:58:43.766Z,27.36
2018-06-16T12:00:36.790Z,27.48
2018-06-16T12:01:36.851Z,27.68
2018-06-16T12:03:29.857Z,27.27
2018-06-16T12:04:29.926Z,27.52
2018-06-16T12:06:22.939Z,27.93
2018-06-16T12:07:23.001Z,27.73
2018-06-16T12:09:16.008Z,27.65
2018-06-16T12:10:16.090Z,27.78
2018-06-16T12:12:09.088Z,27.90
2018-06-16T12:13:09.154Z,27.95
2018-06-16T12:15:02.166Z,27.82
2018-06-16T12:16:02.231Z,27.70
2018-06-16T12:17:55.247Z,27.44
2018-06-16T12:18:55.312Z,27.42
2018-06-16T12:20:48.324Z,27.21
2018-06-16T12:21:48.388Z,27.17
2018-06-16T12:23:41.399Z,27.22
2018-06-16T12:24:41.466Z,27.25
2018-06-16T12:26:34.483Z,27.51
2018-06-16T12:27:34.554Z,27.47
2018-06-16T12:29:27.552Z,27.20
2018-06-16T12:30:27.624Z,26.90
2018-06-16T12:32:20.634Z,26.81
2018-06-16T12:33:20.734Z,26.88
2018-06-16T12:35:14.213Z,26.88
2018-06-16T12:36:14.280Z,26.85
2018-06-16T12:38:07.294Z,26.80
2018-06-16T12:39:07.354Z,26.88
2018-06-16T12:41:00.368Z,27.12
2018-06-16T12:42:00.433Z,27.30
2018-06-16T12:43:53.451Z,27.40
2018-06-16T12:44:53.514Z,27.42
2018-06-16T12:46:46.526Z,27.45
2018-06-16T12:47:46.590Z,27.21
2018-06-16T12:49:39.598Z,26.90
2018-06-16T12:50:39.665Z,26.88
2018-06-16T12:52:32.700Z,26.84
2018-06-16T12:53:32.766Z,26.77
2018-06-16T12:55:25.773Z,26.80
2018-06-16T12:56:25.843Z,26.83
2018-06-16T12:58:18.865Z,26.80
2018-06-16T12:59:18.914Z,26.92
2018-06-16T13:01:11.919Z,26.95
2018-06-16T13:02:11.990Z,26.90
2018-06-16T13:04:05.011Z,26.85
2018-06-16T13:05:05.070Z,26.95
2018-06-16T13:06:58.088Z,27.00
2018-06-16T13:07:58.152Z,26.99
2018-06-16T13:09:51.161Z,26.99
2018-06-16T13:10:51.226Z,27.03
2018-06-16T13:12:44.239Z,27.03
2018-06-16T13:13:44.305Z,27.07
2018-06-16T13:15:37.311Z,26.88
2018-06-16T13:16:37.381Z,26.92
2018-06-16T13:18:30.397Z,27.08
2018-06-16T13:19:30.460Z,27.05
2018-06-16T13:21:23.465Z,27.00
2018-06-16T13:22:23.534Z,26.97
2018-06-16T13:24:16.546Z,26.88
2018-06-16T13:25:16.609Z,26.95
2018-06-16T13:27:09.616Z,26.92
2018-06-16T13:28:09.682Z,26.89
2018-06-16T13:30:02.694Z,26.96
2018-06-16T13:31:02.755Z,26.97
2018-06-16T13:32:55.765Z,26.90
2018-06-16T13:33:55.833Z,27.05
2018-06-16T13:35:48.839Z,27.05
2018-06-16T13:36:48.921Z,26.97
2018-06-16T13:38:41.916Z,26.92
2018-06-16T13:39:41.977Z,26.88
2018-06-16T13:41:34.990Z,26.92
2018-06-16T13:42:35.059Z,27.18
2018-06-16T13:44:28.087Z,27.10
2018-06-16T13:45:28.153Z,26.75
2018-06-16T13:47:21.144Z,26.93
2018-06-16T13:48:21.210Z,26.92
2018-06-16T13:50:14.225Z,26.66
2018-06-16T13:51:14.291Z,26.71
2018-06-16T13:53:07.300Z,26.88
2018-06-16T13:54:07.365Z,26.92
2018-06-16T13:56:00.377Z,27.05
2018-06-16T13:57:00.446Z,27.21
2018-06-16T13:58:53.462Z,27.36
2018-06-16T13:59:53.525Z,27.45
2018-06-16T14:01:46.533Z,27.29
2018-06-16T14:02:46.603Z,26.97
2018-06-16T14:04:39.618Z,26.95
2018-06-16T14:05:39.679Z,26.75
2018-06-16T14:07:32.689Z,26.71
2018-06-16T14:08:32.758Z,26.58
2018-06-16T14:10:25.779Z,26.80
2018-06-16T14:11:25.833Z,26.78
2018-06-16T14:13:18.847Z,26.75
2018-06-16T14:14:18.906Z,26.95
2018-06-16T14:16:11.914Z,27.03
2018-06-16T14:17:11.981Z,27.17
2018-06-16T14:19:04.995Z,27.05
2018-06-16T14:20:05.055Z,26.88
2018-06-16T14:21:58.063Z,26.40
2018-06-16T14:22:58.145Z,26.43
2018-06-16T14:24:51.144Z,26.41
2018-06-16T14:25:51.214Z,26.40
2018-06-16T14:27:44.210Z,26.31
2018-06-16T14:28:44.278Z,26.38
2018-06-16T14:30:37.289Z,26.16
2018-06-16T14:31:37.353Z,26.03
2018-06-16T14:33:30.373Z,26.02
2018-06-16T14:34:30.424Z,25.88
2018-06-16T14:36:23.945Z,25.87
2018-06-16T14:37:24.009Z,26.03
2018-06-16T14:39:17.021Z,26.13
2018-06-16T14:40:17.087Z,26.16
2018-06-16T14:42:10.088Z,26.23
2018-06-16T14:43:10.154Z,26.23
2018-06-16T14:45:03.163Z,26.16
2018-06-16T14:46:03.228Z,26.21
2018-06-16T14:47:56.231Z,26.06
2018-06-16T14:48:56.298Z,25.99
2018-06-16T14:50:49.327Z,26.03
2018-06-16T14:51:49.385Z,26.05
2018-06-16T14:53:42.394Z,26.06
2018-06-16T14:54:42.457Z,25.98
2018-06-16T14:56:35.497Z,26.06
2018-06-16T14:57:35.529Z,26.03
2018-06-16T14:59:28.542Z,26.03
2018-06-16T15:00:28.598Z,26.03
2018-06-16T15:02:21.602Z,26.22
2018-06-16T15:03:21.673Z,26.21
2018-06-16T15:05:14.681Z,26.18
2018-06-16T15:06:14.742Z,26.22
2018-06-16T15:08:07.745Z,26.00
2018-06-16T15:09:07.812Z,26.05
2018-06-16T15:11:00.818Z,25.96
2018-06-16T15:12:00.881Z,25.90
2018-06-16T15:13:53.887Z,25.85
2018-06-16T15:14:53.954Z,25.98
2018-06-16T15:16:46.969Z,25.83
2018-06-16T15:17:47.032Z,25.93
2018-06-16T15:19:40.038Z,26.06
2018-06-16T15:20:40.099Z,26.21
2018-06-16T15:22:33.099Z,26.43
2018-06-16T15:23:33.170Z,26.45
2018-06-16T15:25:26.181Z,26.81
2018-06-16T15:26:26.248Z,26.96
2018-06-16T15:28:19.246Z,27.17
2018-06-16T15:29:19.365Z,27.27
2018-06-16T15:31:12.329Z,27.12
2018-06-16T15:32:12.389Z,27.29
2018-06-16T15:34:05.396Z,27.35
2018-06-16T15:35:05.462Z,27.26
2018-06-16T15:36:59.985Z,26.89
2018-06-16T15:38:00.041Z,26.88
2018-06-16T15:39:53.053Z,26.88
2018-06-16T15:40:53.113Z,26.96
2018-06-16T15:42:46.120Z,26.93
2018-06-16T15:43:46.190Z,26.99
2018-06-16T15:45:39.216Z,26.85
2018-06-16T15:46:39.317Z,26.90
2018-06-16T15:48:32.280Z,26.96
2018-06-16T15:49:32.350Z,26.95
2018-06-16T15:51:25.944Z,26.92
2018-06-16T15:52:25.930Z,26.83
2018-06-16T15:54:18.943Z,26.83
2018-06-16T15:55:19.005Z,26.60
2018-06-16T15:57:12.046Z,26.71
2018-06-16T15:58:12.090Z,26.71
2018-06-16T16:00:05.116Z,26.51
2018-06-16T16:01:05.161Z,26.38
2018-06-16T16:02:58.170Z,26.48
2018-06-16T16:03:58.241Z,26.58
2018-06-16T16:05:51.267Z,26.62
2018-06-16T16:06:51.315Z,26.66
2018-06-16T16:08:44.319Z,26.56
2018-06-16T16:09:44.385Z,26.71
2018-06-16T16:11:37.395Z,26.70
2018-06-16T16:12:37.457Z,26.74
2018-06-16T16:14:30.459Z,26.75
2018-06-16T16:15:30.534Z,26.77
2018-06-16T16:17:23.541Z,26.73
2018-06-16T16:18:23.602Z,26.56
2018-06-16T16:20:16.611Z,26.47
2018-06-16T16:21:16.680Z,26.41
2018-06-16T16:23:09.676Z,26.34
2018-06-16T16:24:09.743Z,26.18
2018-06-16T16:26:02.752Z,26.07
2018-06-16T16:27:02.815Z,26.03
2018-06-16T16:28:55.821Z,26.03
2018-06-16T16:29:55.890Z,25.95
2018-06-16T16:31:48.899Z,25.91
2018-06-16T16:32:48.959Z,25.88
2018-06-16T16:34:41.967Z,25.60
2018-06-16T16:35:42.034Z,25.65
2018-06-16T16:37:35.040Z,25.62
2018-06-16T16:38:35.096Z,25.55
2018-06-16T16:40:28.111Z,25.53
2018-06-16T16:41:28.173Z,25.58
2018-06-16T16:43:21.174Z,25.50
2018-06-16T16:44:21.242Z,25.62
2018-06-16T16:46:14.255Z,25.65
2018-06-16T16:47:14.311Z,25.72
2018-06-16T16:49:07.349Z,25.75
2018-06-16T16:50:07.460Z,25.73
2018-06-16T16:52:00.425Z,25.72
2018-06-16T16:53:00.481Z,25.70
2018-06-16T16:54:53.493Z,25.69
2018-06-16T16:55:53.556Z,25.69
2018-06-16T16:57:46.568Z,25.69
2018-06-16T16:58:46.631Z,25.72
2018-06-16T17:00:39.639Z,25.70
2018-06-16T17:01:39.698Z,25.73
2018-06-16T17:03:32.698Z,25.68
2018-06-16T17:04:32.767Z,25.73
2018-06-16T17:06:25.778Z,25.54
2018-06-16T17:07:25.836Z,25.47
2018-06-16T17:09:18.836Z,25.41
2018-06-16T17:10:18.903Z,25.40
2018-06-16T17:12:12.420Z,25.35
2018-06-16T17:13:12.479Z,25.32
2018-06-16T17:15:05.497Z,25.23
2018-06-16T17:16:05.568Z,25.23
2018-06-16T17:17:58.581Z,25.18
2018-06-16T17:18:58.645Z,25.26
2018-06-16T17:20:51.647Z,25.08
2018-06-16T17:21:51.707Z,25.04
2018-06-16T17:23:44.708Z,24.92
2018-06-16T17:24:44.781Z,24.93
2018-06-16T17:26:37.784Z,24.99
2018-06-16T17:27:37.852Z,24.92
2018-06-16T17:29:30.848Z,24.91
2018-06-16T17:30:30.914Z,24.81
2018-06-16T17:32:23.919Z,24.81
2018-06-16T17:33:23.980Z,24.80
2018-06-16T17:35:16.985Z,24.73
2018-06-16T17:36:17.055Z,24.69
2018-06-16T17:38:10.059Z,24.76
2018-06-16T17:39:10.120Z,24.74
2018-06-16T17:41:03.135Z,24.63
2018-06-16T17:42:03.188Z,24.61
2018-06-16T17:43:56.190Z,24.54
2018-06-16T17:44:56.256Z,24.35
2018-06-16T17:46:49.268Z,24.10
2018-06-16T17:47:49.332Z,23.92
2018-06-16T17:49:42.339Z,23.87
2018-06-16T17:50:42.405Z,23.76
2018-06-16T17:52:35.402Z,23.48
2018-06-16T17:53:35.463Z,23.34
2018-06-16T17:55:28.463Z,23.10
2018-06-16T17:56:28.529Z,22.93
2018-06-16T17:58:21.536Z,22.47
2018-06-16T17:59:21.600Z,22.22
2018-06-16T18:01:14.612Z,21.91
2018-06-16T18:02:14.663Z,21.82
2018-06-16T18:04:07.663Z,21.70
2018-06-16T18:05:07.728Z,21.61
2018-06-16T18:07:00.726Z,21.45
2018-06-16T18:08:00.790Z,21.43
2018-06-16T18:09:53.788Z,21.29
2018-06-16T18:10:53.853Z,21.32
2018-06-16T18:12:46.857Z,21.21
2018-06-16T18:13:46.916Z,21.18
2018-06-16T18:15:39.938Z,21.24
2018-06-16T18:16:39.985Z,21.22
2018-06-16T18:18:32.993Z,21.12
2018-06-16T18:19:33.054Z,21.17
2018-06-16T18:21:26.051Z,21.07
2018-06-16T18:22:26.117Z,21.03
2018-06-16T18:24:19.119Z,20.87
2018-06-16T18:25:19.181Z,20.82
2018-06-16T18:27:12.183Z,20.74
2018-06-16T18:28:12.240Z,20.72
2018-06-16T18:33:09.137Z,20.77
2018-06-16T18:34:08.658Z,20.72
2018-06-16T18:36:01.659Z,20.70
2018-06-16T18:37:01.718Z,20.62
2018-06-16T18:38:55.228Z,20.70
2018-06-16T18:39:55.287Z,20.60
2018-06-16T18:41:48.291Z,20.72